M/V Ian Earle — WDD9798 — position and weather

sailwx.info

Track history (hours):
 
Tides and Currents Weather Stations Pressure Air Temp Water Temp Dewpoint Dewpoint Depression Visibility Wind Speed Wind Dir Waves Ship Positions

M/V Ian Earle

Owner: The Tug Ian Earle, L.L.C., Channelview, TX. More information available from US FCC via Universal Licensing System and Coast Guard Vessel Documentation Center.

Last reported at 2018-Jun-25 04:33 UTC. Time now 2018-Jun-25 10:08 UTC.
Position N 29°44' W 095°01'.

Length 23 m.

Type: Other ship. MMSI: 367316480.

Date/timePositionNaut miles runAvg speedWind from/ knotsBaromVisibWave heightAir tempDewpointWater temp
2018-Jun-25 04:33N 29°44' W 095°01'0 0.2
2018-Jun-25 04:18N 29°44' W 095°01'0 0.0
2018-Jun-25 03:56N 29°44' W 095°01'1 0.0
2018-Jun-24 13:40N 29°43' W 095°01'0 0.2
2018-Jun-24 13:22N 29°43' W 095°01'1 2.0
2018-Jun-24 12:59N 29°44' W 095°02'4 0.1
2018-Jun-23 09:37N 29°47' W 095°04'1 2.9
2018-Jun-23 09:22N 29°47' W 095°04'2 0.5
2018-Jun-23 05:46N 29°46' W 095°06'0 0.0
2018-Jun-23 04:45N 29°46' W 095°06'0 0.0
2018-Jun-23 04:19N 29°46' W 095°06'0 0.0
2018-Jun-22 04:39N 29°46' W 095°06'0 0.0
2018-Jun-22 03:38N 29°46' W 095°06'0 0.0
2018-Jun-22 03:25N 29°46' W 095°06'2 0.0
2018-Jun-20 01:39N 29°47' W 095°04'0 0.2
2018-Jun-20 01:27N 29°47' W 095°04'  
Track history (hours):
 
Tides and Currents Weather Stations Pressure Air Temp Water Temp Dewpoint Dewpoint Depression Visibility Wind Speed Wind Dir Waves Ship Positions

M/V Ian Earle

Owner: The Tug Ian Earle, L.L.C., Channelview, TX. More information available from US FCC via Universal Licensing System and Coast Guard Vessel Documentation Center.

Last reported at 2018-Jun-25 04:33 UTC. Time now 2018-Jun-25 10:08 UTC.
Position N 29°44' W 095°01'.

Length 23 m.

Type: Other ship. MMSI: 367316480.

Date/timePositionNaut miles runAvg speedWind from/ knotsBaromVisibWave heightAir tempDewpointWater temp
2018-Jun-25 04:33N 29°44' W 095°01'0 0.2
2018-Jun-25 04:18N 29°44' W 095°01'0 0.0
2018-Jun-25 03:56N 29°44' W 095°01'1 0.0
2018-Jun-24 13:40N 29°43' W 095°01'0 0.2
2018-Jun-24 13:22N 29°43' W 095°01'1 2.0
2018-Jun-24 12:59N 29°44' W 095°02'4 0.1
2018-Jun-23 09:37N 29°47' W 095°04'1 2.9
2018-Jun-23 09:22N 29°47' W 095°04'2 0.5
2018-Jun-23 05:46N 29°46' W 095°06'0 0.0
2018-Jun-23 04:45N 29°46' W 095°06'0 0.0
2018-Jun-23 04:19N 29°46' W 095°06'0 0.0
2018-Jun-22 04:39N 29°46' W 095°06'0 0.0
2018-Jun-22 03:38N 29°46' W 095°06'0 0.0
2018-Jun-22 03:25N 29°46' W 095°06'2 0.0
2018-Jun-20 01:39N 29°47' W 095°04'0 0.2
2018-Jun-20 01:27N 29°47' W 095°04'  

Dump ship's entire track history